Oro Valley, Arizona
Current Conditions -  °F | °C
As of 6:58 AM on Tuesday 21 Oct 2014 (Local Time) from KDMA Reporting Station
Clear Clear  
Wind Chill: 64°   Ceiling: Unl
Heat Index: 64°   Visibility: 10mi
Dew Point: 50°   Wind: 10mph
Humidity: 61%   Direction: 130°SE
Pressure: 29.94"   Gusts: NA
Location:  32.4847°N, 110.899°W
Report Text: KDMA 211358Z AUTO 13009KT 10SM CLR 18/10 A2994 RMK AO2 SLP105 T01770100 $
Loading
Personal Weather Stations






























Interactive Weather Map
Tropical Storm Tracking
New forecast layout! Learn more

10-Day Weather Forecast

Advertisements
Track Severe Weather on mobile